createdAt,value
2023-02-19T00:01:45.969Z,1.50
2023-02-19T00:04:14.297Z,1.30
2023-02-19T00:06:42.003Z,1.00
2023-02-19T00:09:13.750Z,1.10
2023-02-19T00:11:41.371Z,1.30
2023-02-19T00:14:08.698Z,1.20
2023-02-19T00:16:40.197Z,1.30
2023-02-19T00:19:09.241Z,1.20
2023-02-19T00:21:35.707Z,1.20
2023-02-19T00:24:05.389Z,1.10
2023-02-19T00:26:32.912Z,0.70
2023-02-19T00:29:00.717Z,1.00
2023-02-19T00:31:32.524Z,0.90
2023-02-19T00:34:02.230Z,1.00
2023-02-19T00:36:29.564Z,1.40
2023-02-19T00:38:56.404Z,1.10
2023-02-19T00:41:24.141Z,1.10
2023-02-19T00:44:02.148Z,1.10
2023-02-19T00:46:31.846Z,1.10
2023-02-19T00:48:59.181Z,1.80
2023-02-19T00:51:31.643Z,1.20
2023-02-19T00:53:59.011Z,1.50
2023-02-19T00:56:25.740Z,1.50
2023-02-19T00:58:52.795Z,1.70
2023-02-19T01:01:20.326Z,1.50
2023-02-19T01:03:48.240Z,1.40
2023-02-19T01:06:18.247Z,1.20
2023-02-19T01:08:45.433Z,1.40
2023-02-19T01:11:13.458Z,1.20
2023-02-19T01:13:42.086Z,1.30
2023-02-19T01:16:18.831Z,1.00
2023-02-19T01:18:46.324Z,1.30
2023-02-19T01:21:19.565Z,0.90
2023-02-19T01:23:47.106Z,1.00
2023-02-19T01:26:19.574Z,1.00
2023-02-19T01:28:47.166Z,1.30
2023-02-19T01:31:17.822Z,0.80
2023-02-19T01:33:46.454Z,1.00
2023-02-19T01:36:13.609Z,0.60
2023-02-19T01:38:42.737Z,0.60
2023-02-19T01:41:12.473Z,0.60
2023-02-19T01:44:00.270Z,0.60
2023-02-19T01:46:29.179Z,0.70
2023-02-19T01:49:10.039Z,1.60
2023-02-19T01:51:41.378Z,0.80
2023-02-19T01:56:41.069Z,0.80
2023-02-19T01:59:07.793Z,0.40
2023-02-19T02:01:35.869Z,0.70
2023-02-19T02:04:03.840Z,0.60
2023-02-19T02:06:34.398Z,0.70
2023-02-19T02:09:01.513Z,0.50
2023-02-19T02:11:29.190Z,0.90
2023-02-19T02:13:57.142Z,0.50
2023-02-19T02:16:39.167Z,0.60
2023-02-19T02:19:40.357Z,0.50
2023-02-19T02:22:42.493Z,0.50
2023-02-19T02:25:46.195Z,0.40
2023-02-19T02:28:51.458Z,0.70
2023-02-19T02:31:23.119Z,0.60
2023-02-19T02:34:12.568Z,0.70
2023-02-19T02:36:45.710Z,0.90
2023-02-19T02:39:17.308Z,1.20
2023-02-19T02:41:49.186Z,0.60
2023-02-19T02:44:16.284Z,1.00
2023-02-19T02:46:45.383Z,0.80
2023-02-19T02:49:21.158Z,0.50
2023-02-19T02:51:52.526Z,0.80
2023-02-19T02:56:59.996Z,0.70
2023-02-19T02:59:31.756Z,0.60
2023-02-19T03:02:09.456Z,0.70
2023-02-19T03:04:44.325Z,0.90
2023-02-19T03:07:12.162Z,0.70
2023-02-19T03:09:43.019Z,0.50
2023-02-19T03:12:17.767Z,0.60
2023-02-19T03:14:48.910Z,0.60
2023-02-19T03:17:33.444Z,0.50
2023-02-19T03:20:03.121Z,0.80
2023-02-19T03:22:33.908Z,0.90
2023-02-19T03:25:14.255Z,0.60
2023-02-19T03:27:44.681Z,0.60
2023-02-19T03:30:25.715Z,0.50
2023-02-19T03:32:58.105Z,0.60
2023-02-19T03:35:30.152Z,0.50
2023-02-19T03:38:19.841Z,0.60
2023-02-19T03:41:25.323Z,0.40
2023-02-19T03:44:14.665Z,0.30
2023-02-19T03:46:59.946Z,1.40
2023-02-19T03:49:44.405Z,2.20
2023-02-19T03:52:38.335Z,2.50
2023-02-19T03:55:18.081Z,1.40
2023-02-19T03:58:05.146Z,1.70
2023-02-19T04:00:41.384Z,1.70
2023-02-19T04:03:33.454Z,2.30
2023-02-19T04:06:03.717Z,1.90
2023-02-19T04:08:34.227Z,2.50
2023-02-19T04:11:00.796Z,2.20
2023-02-19T04:13:32.785Z,2.20
2023-02-19T04:16:06.795Z,2.20
2023-02-19T04:18:38.880Z,2.50
2023-02-19T04:21:07.620Z,1.40
2023-02-19T04:23:39.577Z,1.20
2023-02-19T04:26:07.048Z,0.90
2023-02-19T04:28:35.117Z,0.80
2023-02-19T04:31:02.408Z,0.80
2023-02-19T04:33:29.191Z,1.10
2023-02-19T04:35:55.763Z,0.90
2023-02-19T04:38:22.623Z,1.40
2023-02-19T04:40:49.109Z,1.20
2023-02-19T04:43:15.522Z,1.60
2023-02-19T04:45:42.018Z,1.30
2023-02-19T04:48:09.069Z,1.50
2023-02-19T04:50:39.160Z,1.80
2023-02-19T04:53:06.650Z,2.70
2023-02-19T04:55:37.174Z,2.60
2023-02-19T04:58:03.642Z,3.50
2023-02-19T05:00:30.791Z,2.50
2023-02-19T05:02:57.338Z,3.40
2023-02-19T05:05:23.941Z,2.90
2023-02-19T05:07:50.459Z,2.10
2023-02-19T05:10:17.274Z,1.70
2023-02-19T05:12:43.889Z,3.90
2023-02-19T05:15:10.437Z,1.90
2023-02-19T05:17:36.997Z,1.40
2023-02-19T05:20:03.844Z,1.40
2023-02-19T05:22:30.900Z,1.50
2023-02-19T05:24:57.438Z,2.50
2023-02-19T05:27:25.738Z,2.00
2023-02-19T05:29:52.279Z,1.90
2023-02-19T05:32:18.845Z,1.60
2023-02-19T05:34:45.271Z,2.00
2023-02-19T05:37:11.895Z,2.60
2023-02-19T05:39:38.635Z,4.80
2023-02-19T05:42:05.274Z,5.30
2023-02-19T05:44:31.769Z,7.10
2023-02-19T05:46:58.252Z,9.40
2023-02-19T05:49:24.804Z,9.60
2023-02-19T05:51:51.652Z,9.10
2023-02-19T05:54:18.195Z,9.10
2023-02-19T05:56:44.742Z,9.40
2023-02-19T05:59:17.620Z,9.90
2023-02-19T06:01:44.469Z,7.40
2023-02-19T06:04:11.884Z,8.00
2023-02-19T06:06:39.171Z,8.90
2023-02-19T06:09:07.098Z,8.50
2023-02-19T06:11:34.611Z,8.70
2023-02-19T06:14:01.372Z,10.60
2023-02-19T06:16:28.617Z,13.30
2023-02-19T06:18:55.338Z,14.20
2023-02-19T06:21:22.161Z,14.10
2023-02-19T06:23:48.762Z,13.20
2023-02-19T06:26:18.024Z,14.70
2023-02-19T06:28:46.143Z,13.20
2023-02-19T06:31:13.589Z,13.00
2023-02-19T06:33:41.699Z,6.00
2023-02-19T06:36:12.436Z,7.10
2023-02-19T06:38:38.957Z,6.20
2023-02-19T06:41:07.028Z,8.00
2023-02-19T06:43:34.734Z,9.90
2023-02-19T06:46:03.828Z,10.80
2023-02-19T06:48:31.903Z,10.90
2023-02-19T06:50:58.606Z,13.00
2023-02-19T06:53:25.401Z,12.50
2023-02-19T06:56:00.260Z,13.50
2023-02-19T06:58:27.718Z,15.30
2023-02-19T07:00:54.820Z,16.90
2023-02-19T07:03:21.778Z,20.90
2023-02-19T07:05:48.927Z,19.00
2023-02-19T07:08:15.712Z,17.70
2023-02-19T07:10:42.236Z,17.10
2023-02-19T07:13:08.973Z,15.20
2023-02-19T07:15:35.498Z,13.40
2023-02-19T07:18:03.838Z,11.00
2023-02-19T07:20:30.488Z,12.20
2023-02-19T07:22:57.705Z,11.10
2023-02-19T07:25:24.159Z,12.30
2023-02-19T07:27:50.619Z,11.00
2023-02-19T07:30:17.263Z,11.40
2023-02-19T07:32:43.890Z,18.20
2023-02-19T07:35:10.414Z,28.30
2023-02-19T07:37:36.892Z,12.20
2023-02-19T07:40:04.226Z,12.40
2023-02-19T07:42:30.764Z,12.20
2023-02-19T07:45:00.248Z,17.80
2023-02-19T07:47:27.229Z,12.70
2023-02-19T07:49:53.764Z,12.80
2023-02-19T07:52:20.269Z,12.20
2023-02-19T07:54:46.856Z,14.30
2023-02-19T07:57:13.492Z,12.50
2023-02-19T07:59:40.466Z,14.40
2023-02-19T08:02:18.361Z,15.30
2023-02-19T08:04:47.334Z,16.70
2023-02-19T08:07:13.779Z,17.50
2023-02-19T08:09:40.332Z,23.60
2023-02-19T08:12:06.978Z,22.30
2023-02-19T08:14:33.585Z,20.80
2023-02-19T08:17:00.314Z,25.30
2023-02-19T08:19:26.851Z,23.30
2023-02-19T08:21:53.333Z,17.60
2023-02-19T08:24:19.843Z,18.30
2023-02-19T08:26:46.331Z,18.30
2023-02-19T08:29:12.930Z,18.10
2023-02-19T08:31:39.611Z,32.70
2023-02-19T08:34:06.321Z,31.60
2023-02-19T08:36:32.905Z,32.30
2023-02-19T08:38:59.429Z,29.70
2023-02-19T08:41:25.964Z,26.80
2023-02-19T08:43:52.407Z,25.40
2023-02-19T08:46:19.008Z,23.10
2023-02-19T08:48:45.801Z,21.50
2023-02-19T08:51:12.658Z,33.40
2023-02-19T08:53:40.860Z,18.10
2023-02-19T08:56:13.115Z,19.70
2023-02-19T08:58:40.591Z,16.10
2023-02-19T09:01:12.588Z,17.30
2023-02-19T09:03:39.905Z,20.60
2023-02-19T09:06:06.802Z,21.70
2023-02-19T09:08:33.290Z,20.60
2023-02-19T09:11:02.500Z,20.10
2023-02-19T09:13:29.210Z,20.40
2023-02-19T09:15:56.385Z,20.10
2023-02-19T09:18:24.456Z,18.60
2023-02-19T09:20:50.949Z,18.40
2023-02-19T09:23:17.452Z,17.70
2023-02-19T09:25:44.101Z,16.10
2023-02-19T09:28:10.615Z,15.40
2023-02-19T09:30:37.313Z,14.40
2023-02-19T09:33:05.541Z,14.30
2023-02-19T09:35:32.096Z,10.20
2023-02-19T09:38:00.884Z,10.80
2023-02-19T09:40:27.742Z,12.60
2023-02-19T09:42:54.295Z,6.30
2023-02-19T09:45:24.918Z,4.40
2023-02-19T09:47:57.445Z,3.40
2023-02-19T09:50:36.319Z,3.10
2023-02-19T09:53:11.721Z,2.50
2023-02-19T09:55:43.501Z,3.10
2023-02-19T09:58:27.423Z,2.80
2023-02-19T10:00:56.618Z,3.20
2023-02-19T10:03:27.358Z,3.00
2023-02-19T10:05:54.368Z,3.30
2023-02-19T10:08:21.321Z,2.50
2023-02-19T10:10:48.056Z,3.20
2023-02-19T10:13:25.782Z,3.00
2023-02-19T10:15:56.657Z,4.10
2023-02-19T10:18:26.746Z,2.90
2023-02-19T10:20:53.587Z,2.90
2023-02-19T10:23:20.608Z,2.30
2023-02-19T10:25:57.947Z,2.80
2023-02-19T10:28:31.194Z,3.30
2023-02-19T10:31:00.399Z,3.80
2023-02-19T10:33:27.301Z,4.30
2023-02-19T10:35:59.390Z,4.70
2023-02-19T10:38:35.330Z,4.60
2023-02-19T10:41:14.690Z,4.30
2023-02-19T10:43:51.050Z,4.70
2023-02-19T10:46:33.331Z,5.70
2023-02-19T10:49:03.921Z,4.50
2023-02-19T10:51:37.214Z,5.30
2023-02-19T10:54:07.526Z,5.90
2023-02-19T10:56:34.145Z,6.00
2023-02-19T10:59:28.267Z,5.80
2023-02-19T11:02:02.622Z,6.30
2023-02-19T11:04:32.214Z,5.90
2023-02-19T11:06:58.686Z,2.80
2023-02-19T11:09:39.313Z,2.50
2023-02-19T11:12:09.220Z,2.60
2023-02-19T11:14:36.577Z,2.70
2023-02-19T11:17:05.482Z,3.40
2023-02-19T11:19:44.405Z,3.50
2023-02-19T11:22:26.527Z,4.20
2023-02-19T11:24:57.304Z,3.50
2023-02-19T11:27:25.337Z,3.30
2023-02-19T11:29:51.980Z,3.70
2023-02-19T11:32:27.953Z,3.30
2023-02-19T11:35:14.510Z,6.80
2023-02-19T11:38:01.783Z,8.20
2023-02-19T11:40:59.253Z,6.30
2023-02-19T11:43:41.061Z,5.00
2023-02-19T11:46:51.105Z,4.90
2023-02-19T11:49:52.992Z,4.30
2023-02-19T11:52:35.505Z,5.20
2023-02-19T11:55:07.992Z,3.10
2023-02-19T11:57:47.980Z,2.70
2023-02-19T12:00:32.610Z,2.10
2023-02-19T12:03:20.957Z,3.60
2023-02-19T12:06:09.051Z,3.10
2023-02-19T12:08:41.769Z,2.10
2023-02-19T12:11:20.432Z,2.20
2023-02-19T12:14:00.422Z,2.60
2023-02-19T12:16:38.505Z,2.50
2023-02-19T12:19:33.865Z,2.40
2023-02-19T12:22:16.339Z,4.00
2023-02-19T12:24:58.416Z,4.70
2023-02-19T12:27:41.654Z,2.20
2023-02-19T12:30:35.982Z,3.20
2023-02-19T12:33:11.673Z,4.40
2023-02-19T12:35:47.151Z,2.90
2023-02-19T12:38:43.263Z,3.30
2023-02-19T12:41:12.699Z,3.70
2023-02-19T12:43:46.189Z,3.40
2023-02-19T12:46:19.023Z,4.90
2023-02-19T12:49:12.497Z,4.40
2023-02-19T12:52:13.066Z,4.50
2023-02-19T12:54:43.475Z,3.70
2023-02-19T12:57:18.377Z,3.60
2023-02-19T13:00:00.373Z,4.10
2023-02-19T13:02:54.451Z,4.10
2023-02-19T13:05:21.012Z,3.80
2023-02-19T13:08:04.050Z,6.80
2023-02-19T13:10:43.173Z,11.70
2023-02-19T13:13:19.048Z,14.30
2023-02-19T13:15:50.280Z,13.60
2023-02-19T13:18:24.116Z,11.30
2023-02-19T13:20:52.258Z,3.90
2023-02-19T13:23:21.871Z,9.20
2023-02-19T13:26:15.512Z,3.10
2023-02-19T13:28:58.682Z,3.70
2023-02-19T13:32:07.187Z,4.20
2023-02-19T13:35:01.927Z,4.60
2023-02-19T13:37:33.247Z,4.90
2023-02-19T13:40:04.905Z,4.50
2023-02-19T13:42:34.021Z,4.80
2023-02-19T13:45:03.430Z,5.10
2023-02-19T13:47:56.171Z,6.40
2023-02-19T13:50:28.580Z,6.90
2023-02-19T13:52:56.956Z,5.00
2023-02-19T13:55:41.724Z,5.60
2023-02-19T13:58:33.533Z,6.10
2023-02-19T14:01:11.388Z,6.00
2023-02-19T14:04:06.893Z,6.70
2023-02-19T14:07:05.300Z,7.20
2023-02-19T14:09:34.899Z,9.10
2023-02-19T14:12:03.374Z,8.40
2023-02-19T14:14:38.928Z,9.90
2023-02-19T14:17:45.743Z,7.80
2023-02-19T14:20:15.189Z,4.90
2023-02-19T14:22:44.844Z,5.40
2023-02-19T14:25:35.539Z,6.00
2023-02-19T14:28:11.194Z,4.50
2023-02-19T14:31:11.364Z,4.30
2023-02-19T14:33:43.996Z,4.70
2023-02-19T14:36:35.242Z,4.70
2023-02-19T14:39:13.861Z,5.10
2023-02-19T14:41:45.165Z,6.10
2023-02-19T14:44:18.940Z,6.90
2023-02-19T14:47:00.005Z,6.30
2023-02-19T14:49:39.343Z,6.90
2023-02-19T14:52:14.792Z,7.20
2023-02-19T14:54:58.537Z,6.10
2023-02-19T14:57:35.851Z,9.60
2023-02-19T15:00:21.834Z,7.00
2023-02-19T15:02:51.235Z,12.50
2023-02-19T15:05:23.627Z,9.20
2023-02-19T15:07:51.509Z,9.40
2023-02-19T15:10:18.445Z,9.30
2023-02-19T15:12:51.126Z,8.70
2023-02-19T15:15:31.183Z,9.90
2023-02-19T15:18:00.856Z,9.50
2023-02-19T15:20:30.953Z,9.60
2023-02-19T15:22:59.506Z,10.50
2023-02-19T15:25:37.964Z,10.40
2023-02-19T15:28:32.138Z,11.30
2023-02-19T15:30:58.593Z,9.00
2023-02-19T15:33:27.653Z,10.20
2023-02-19T15:35:58.199Z,12.30
2023-02-19T15:38:25.447Z,10.00
2023-02-19T15:40:53.232Z,10.00
2023-02-19T15:43:26.123Z,12.10
2023-02-19T15:45:58.305Z,14.10
2023-02-19T15:48:37.075Z,20.40
2023-02-19T15:51:11.141Z,18.80
2023-02-19T15:53:46.286Z,18.20
2023-02-19T15:56:22.643Z,14.00
2023-02-19T15:58:59.268Z,13.10
2023-02-19T16:01:28.550Z,12.00
2023-02-19T16:03:56.102Z,8.90
2023-02-19T16:06:25.230Z,15.20
2023-02-19T16:08:55.142Z,10.70
2023-02-19T16:11:29.447Z,6.70
2023-02-19T16:14:27.115Z,6.50
2023-02-19T16:16:58.955Z,6.60
2023-02-19T16:19:31.985Z,8.90
2023-02-19T16:21:59.642Z,10.10
2023-02-19T16:24:34.170Z,8.60
2023-02-19T16:27:01.358Z,12.40
2023-02-19T16:29:31.592Z,8.20
2023-02-19T16:32:01.559Z,9.50
2023-02-19T16:34:32.421Z,8.80
2023-02-19T16:36:59.165Z,7.00
2023-02-19T16:39:25.721Z,9.90
2023-02-19T16:42:11.791Z,8.70
2023-02-19T16:44:38.554Z,9.00
2023-02-19T16:47:07.778Z,9.20
2023-02-19T16:49:34.401Z,8.50
2023-02-19T16:52:04.542Z,8.40
2023-02-19T16:54:31.628Z,8.00
2023-02-19T16:56:58.229Z,8.30
2023-02-19T16:59:24.760Z,9.40
2023-02-19T17:01:51.508Z,7.50
2023-02-19T17:04:17.936Z,7.40
2023-02-19T17:06:44.898Z,7.80
2023-02-19T17:09:11.646Z,6.80
2023-02-19T17:11:38.293Z,7.80
2023-02-19T17:14:04.729Z,8.10
2023-02-19T17:16:33.388Z,8.80
2023-02-19T17:18:59.882Z,10.80
2023-02-19T17:21:28.876Z,9.70
2023-02-19T17:23:56.515Z,8.30
2023-02-19T17:26:28.917Z,10.50
2023-02-19T17:28:59.984Z,9.90
2023-02-19T17:31:26.960Z,10.10
2023-02-19T17:33:54.144Z,11.50
2023-02-19T17:36:24.293Z,9.00
2023-02-19T17:38:50.918Z,8.70
2023-02-19T17:41:17.664Z,6.60
2023-02-19T17:43:44.398Z,6.30
2023-02-19T17:46:15.524Z,6.40
2023-02-19T17:48:42.093Z,7.50
2023-02-19T17:51:08.977Z,7.30
2023-02-19T17:53:36.209Z,6.00
2023-02-19T17:56:02.789Z,5.40
2023-02-19T17:58:29.481Z,7.10
2023-02-19T18:00:55.979Z,6.50
2023-02-19T18:03:22.548Z,8.90
2023-02-19T18:05:48.976Z,7.80
2023-02-19T18:08:16.049Z,7.10
2023-02-19T18:10:42.809Z,6.80
2023-02-19T18:13:09.283Z,7.30
2023-02-19T18:15:36.300Z,6.80
2023-02-19T18:18:03.135Z,6.80
2023-02-19T18:20:29.996Z,7.60
2023-02-19T18:22:57.341Z,5.90
2023-02-19T18:25:24.196Z,6.60
2023-02-19T18:27:50.963Z,6.50
2023-02-19T18:30:20.157Z,4.20
2023-02-19T18:32:47.505Z,7.90
2023-02-19T18:35:15.175Z,6.90
2023-02-19T18:37:42.122Z,8.10
2023-02-19T18:40:09.323Z,7.10
2023-02-19T18:42:35.920Z,6.80
2023-02-19T18:45:02.782Z,12.20
2023-02-19T18:47:29.417Z,8.90
2023-02-19T18:49:57.708Z,9.50
2023-02-19T18:52:26.019Z,7.90
2023-02-19T18:54:54.004Z,10.30
2023-02-19T18:57:22.954Z,10.50
2023-02-19T18:59:49.825Z,10.60
2023-02-19T19:02:21.154Z,9.40
2023-02-19T19:04:52.721Z,10.00
2023-02-19T19:07:20.639Z,9.50
2023-02-19T19:09:47.604Z,9.60
2023-02-19T19:12:15.331Z,8.80
2023-02-19T19:14:42.464Z,7.50
2023-02-19T19:17:09.012Z,8.10
2023-02-19T19:19:35.732Z,8.10
2023-02-19T19:22:02.270Z,10.80
2023-02-19T19:24:28.825Z,8.70
2023-02-19T19:26:55.449Z,7.80
2023-02-19T19:29:22.529Z,7.60
2023-02-19T19:31:49.751Z,7.50
2023-02-19T19:34:16.485Z,7.10
2023-02-19T19:36:43.681Z,7.10
2023-02-19T19:39:10.526Z,7.00
2023-02-19T19:41:37.029Z,6.80
2023-02-19T19:44:08.376Z,7.00
2023-02-19T19:46:35.964Z,7.60
2023-02-19T19:49:02.665Z,9.20
2023-02-19T19:51:33.848Z,7.70
2023-02-19T19:54:00.823Z,6.90
2023-02-19T19:56:27.257Z,6.90
2023-02-19T19:58:54.107Z,7.30
2023-02-19T20:01:21.611Z,7.90
2023-02-19T20:03:48.413Z,7.80
2023-02-19T20:06:15.268Z,6.40
2023-02-19T20:08:41.766Z,6.50
2023-02-19T20:11:08.812Z,5.60
2023-02-19T20:13:35.501Z,6.80
2023-02-19T20:16:02.016Z,7.30
2023-02-19T20:18:28.680Z,7.30
2023-02-19T20:20:55.378Z,5.70
2023-02-19T20:23:22.174Z,7.20
2023-02-19T20:25:49.228Z,6.60
2023-02-19T20:28:18.785Z,6.50
2023-02-19T20:30:45.305Z,7.00
2023-02-19T20:33:12.366Z,7.40
2023-02-19T20:35:38.958Z,7.70
2023-02-19T20:38:05.387Z,7.40
2023-02-19T20:40:32.143Z,6.10
2023-02-19T20:42:58.901Z,5.40
2023-02-19T20:45:25.361Z,6.10
2023-02-19T20:47:52.003Z,5.70
2023-02-19T20:50:19.132Z,5.60
2023-02-19T20:52:46.512Z,7.10
2023-02-19T20:55:13.028Z,7.00
2023-02-19T20:57:39.803Z,5.80
2023-02-19T21:00:08.384Z,7.70
2023-02-19T21:02:35.173Z,8.60
2023-02-19T21:05:01.824Z,7.40
2023-02-19T21:07:28.618Z,8.70
2023-02-19T21:09:55.166Z,6.40
2023-02-19T21:12:22.408Z,6.60
2023-02-19T21:14:49.047Z,6.30
2023-02-19T21:17:15.721Z,5.60
2023-02-19T21:19:42.186Z,5.50
2023-02-19T21:22:08.769Z,5.60
2023-02-19T21:24:35.186Z,5.60
2023-02-19T21:27:01.708Z,6.60
2023-02-19T21:29:28.501Z,5.70
2023-02-19T21:31:57.133Z,5.80
2023-02-19T21:34:29.081Z,7.20
2023-02-19T21:36:56.613Z,7.70
2023-02-19T21:39:26.706Z,7.10
2023-02-19T21:41:53.694Z,7.90
2023-02-19T21:44:20.668Z,6.10
2023-02-19T21:46:47.899Z,5.80
2023-02-19T21:49:14.571Z,6.70
2023-02-19T21:51:43.241Z,5.10
2023-02-19T21:54:15.980Z,6.40
2023-02-19T21:56:42.801Z,6.40
2023-02-19T21:59:09.335Z,5.70
2023-02-19T22:01:37.745Z,6.10
2023-02-19T22:04:05.969Z,6.00
2023-02-19T22:06:33.000Z,5.60
2023-02-19T22:09:00.021Z,4.90
2023-02-19T22:11:26.826Z,5.80
2023-02-19T22:13:53.986Z,5.80
2023-02-19T22:16:21.187Z,6.10
2023-02-19T22:18:53.731Z,6.00
2023-02-19T22:21:21.652Z,4.80
2023-02-19T22:23:50.198Z,5.90
2023-02-19T22:26:29.225Z,5.80
2023-02-19T22:28:56.274Z,5.20
2023-02-19T22:31:24.904Z,6.20
2023-02-19T22:33:52.416Z,5.60
2023-02-19T22:36:24.384Z,5.30
2023-02-19T22:38:50.912Z,5.30
2023-02-19T22:41:19.098Z,4.90
2023-02-19T22:43:46.162Z,5.40
2023-02-19T22:46:24.927Z,4.50
2023-02-19T22:48:51.743Z,4.60
2023-02-19T22:51:21.290Z,5.60
2023-02-19T22:53:50.160Z,6.10
2023-02-19T22:56:18.315Z,5.00
2023-02-19T22:58:45.468Z,4.80
2023-02-19T23:01:16.169Z,4.60
2023-02-19T23:03:49.871Z,3.90
2023-02-19T23:06:27.957Z,4.50
2023-02-19T23:08:56.782Z,4.50
2023-02-19T23:11:28.993Z,4.00
2023-02-19T23:13:57.062Z,4.40
2023-02-19T23:16:23.816Z,4.00
2023-02-19T23:18:51.104Z,3.70
2023-02-19T23:21:19.201Z,4.00
2023-02-19T23:23:46.630Z,4.40
2023-02-19T23:26:14.793Z,3.90
2023-02-19T23:28:45.419Z,4.80
2023-02-19T23:31:13.323Z,4.40
2023-02-19T23:33:40.421Z,4.60
2023-02-19T23:36:08.085Z,4.90
2023-02-19T23:38:35.284Z,4.80
2023-02-19T23:41:02.336Z,4.00
2023-02-19T23:43:29.486Z,5.10
2023-02-19T23:45:56.070Z,5.00
2023-02-19T23:48:22.773Z,5.30
2023-02-19T23:50:49.309Z,5.20
2023-02-19T23:53:15.877Z,5.50
2023-02-19T23:55:42.605Z,4.90
2023-02-19T23:58:09.147Z,5.00
